Latest Weather Observations for Wellcamp Airport

IDQ60801

Issued at 5:03 pm EST Thursday 23 November 2017 (issued every 30 minutes, with the page automatically refreshed every 10 minutes)

About weather observations | Map of weather stations | Latest weather observations for QLD | Other Formats
Station Details ID: 541150 Name: WELLCAMP AIRPORT Lat: -27.55 Lon: 151.78 Height: 436.98 m
Data from the previous 72 hours. | See also: Recent months for locations in Queensland
Date/Time
EST
Temp
°C
App
Temp
°C
Dew
Point
°C
Rel
Hum
%
Delta-T
°C
Wind Press
QNH
hPa
Press
MSL
hPa
Rain since
9am
mm
Dir  Spd
km/h
Gust
km/h
Spd
kts
Gust
kts
23/05:00pm 25.4 21.0 11.6 42 8.0 E 26 37 14 20 1013.7 1011.7 0.0
23/04:30pm 26.2 22.6 10.0 36 9.2 E 19 26 10 14 1013.5 1011.5 0.0
23/04:00pm 26.8 22.6 9.6 34 9.7 E 22 33 12 18 1013.5 1011.5 0.0
23/03:30pm 26.5 23.9 10.6 37 9.1 ENE 15 30 8 16 1013.7 1011.7 0.0
23/03:00pm 26.3 24.4 9.2 34 9.6 ESE 9 19 5 10 1013.8 1011.8 0.0
23/02:30pm 25.8 23.4 10.0 37 8.9 E 13 28 7 15 1014.0 1012.0 0.0
23/02:00pm 25.5 22.1 9.3 36 9.0 SSE 17 30 9 16 1014.4 1012.4 0.0
23/01:30pm 25.6 23.1 9.8 37 8.9 S 13 24 7 13 1014.8 1012.8 0.0
23/01:00pm 25.8 23.2 10.8 39 8.6 ESE 15 24 8 13 1015.2 1013.1 0.0
23/12:30pm 25.3 22.3 10.7 40 8.3 E 17 28 9 15 1015.5 1013.5 0.0
23/12:00pm 24.5 23.8 11.5 44 7.5 SSE 6 11 3 6 1015.9 1013.9 0.0
23/11:30am 24.3 22.7 11.6 45 7.3 NE 11 24 6 13 1016.4 1014.4 0.0
23/11:00am 23.7 21.9 12.0 48 6.8 E 13 24 7 13 1016.7 1014.7 0.0
23/10:30am 23.5 22.3 12.8 51 6.3 ENE 11 24 6 13 1017.1 1015.1 0.0
23/10:00am 22.5 19.1 11.3 49 6.4 ENE 20 30 11 16 1017.3 1015.3 0.0
23/09:30am 21.9 18.1 12.5 55 5.4 ENE 24 35 13 19 1017.3 1015.3 0.0
23/09:00am 21.4 17.9 13.3 60 4.7 E 24 33 13 18 1017.3 1015.3 0.0
23/08:30am 20.7 17.6 13.4 63 4.3 E 22 30 12 16 1017.3 1015.3 0.0
23/08:00am 20.1 16.6 13.3 65 4.0 E 24 32 13 17 1017.2 1015.2 0.0
23/07:30am 19.9 16.8 13.4 66 3.8 E 22 35 12 19 1017.0 1015.0 0.0
23/07:00am 18.4 15.8 13.1 71 3.0 ESE 19 28 10 15 1016.9 1014.9 0.0
23/06:30am 17.7 15.8 13.0 74 2.7 ESE 15 20 8 11 1016.5 1014.5 0.0
23/06:00am 17.0 15.5 13.1 78 2.2 ESE 13 19 7 10 1016.3 1014.3 0.0
23/05:30am 15.5 15.0 12.8 84 1.5 SE 7 17 4 9 1016.1 1014.1 0.0
23/05:00am 14.9 13.2 12.6 86 1.3 ESE 13 19 7 10 1015.8 1013.8 0.0
23/04:30am 15.2 14.0 12.7 85 1.4 ESE 11 19 6 10 1015.5 1013.5 0.0
23/04:00am 15.3 13.7 12.8 85 1.4 ESE 13 20 7 11 1015.3 1013.2 0.0
23/03:30am 15.3 13.7 12.8 85 1.4 ESE 13 19 7 10 1015.0 1013.0 0.0
23/03:00am 15.1 13.5 12.8 86 1.3 SE 13 19 7 10 1015.0 1013.0 0.0
23/02:30am 14.8 13.4 12.3 85 1.4 SE 11 17 6 9 1015.0 1013.0 0.0
23/02:00am 15.5 14.3 12.8 84 1.5 ESE 11 17 6 9 1015.2 1013.1 0.0
23/01:30am 15.9 14.3 12.8 82 1.8 ESE 13 20 7 11 1015.4 1013.4 0.0
23/01:00am 16.2 14.6 12.9 81 1.9 ESE 13 20 7 11 1015.7 1013.7 0.0
23/12:30am 16.0 15.6 12.9 82 1.8 SE 7 15 4 8 1015.9 1013.9 0.0
23/12:00am 15.8 15.4 12.9 83 1.6 ESE 7 11 4 6 1016.1 1014.1 0.0
 
Date/Time
EST
Temp
°C
App
Temp
°C
Dew
Point
°C
Rel
Hum
%
Delta-T
°C
Wind Press
QNH
hPa
Press
MSL
hPa
Rain since
9am
mm
Dir  Spd
km/h
Gust
km/h
Spd
kts
Gust
kts
22/11:30pm 16.5 15.0 13.0 80 2.0 ESE 13 20 7 11 1016.2 1014.2 0.0
22/11:00pm 16.9 14.1 13.2 79 2.1 E 20 32 11 17 1016.2 1014.2 0.0
22/10:30pm 17.0 14.2 13.3 79 2.1 E 20 30 11 16 1016.6 1014.6 0.0
22/10:00pm 16.9 14.7 13.2 79 2.1 E 17 28 9 15 1017.0 1015.0 0.0
22/09:30pm 17.1 14.9 13.2 78 2.2 ESE 17 30 9 16 1016.7 1014.7 0.0
22/09:00pm 17.1 15.1 12.8 76 2.4 E 15 22 8 12 1016.6 1014.6 0.0
22/08:30pm 17.5 14.6 12.8 74 2.7 E 20 30 11 16 1016.3 1014.3 0.0
22/08:00pm 17.7 14.1 13.0 74 2.7 E 24 32 13 17 1016.0 1014.0 0.0
22/07:30pm 17.8 14.5 12.7 72 2.9 E 22 32 12 17 1016.0 1014.0 0.0
22/07:00pm 18.0 13.5 12.7 71 3.0 E 28 41 15 22 1015.6 1013.6 0.0
22/06:30pm 17.1 13.2 12.2 73 2.8 E 24 33 13 18 1015.7 1013.7 0.0
22/06:00pm 17.8 12.5 13.1 74 2.7 E 33 48 18 26 1016.0 1014.0 0.0
22/05:30pm 20.3 14.2 13.0 63 4.2 ESE 37 52 20 28 1015.5 1013.5 0.0
22/05:24pm 21.8 17.1 12.1 54 5.6 E 28 50 15 27 1015.4 1013.4 0.0
22/05:00pm 22.1 18.0 11.5 51 6.0 E 24 35 13 19 1014.8 1012.8 0.0
22/04:30pm 22.6 17.8 10.4 46 6.8 E 26 35 14 19 1014.5 1012.5 0.0
22/04:00pm 23.2 17.6 10.3 44 7.2 E 30 37 16 20 1014.3 1012.3 0.0
22/03:30pm 23.3 17.4 10.4 44 7.2 E 32 43 17 23 1014.3 1012.3 0.0
22/03:00pm 23.8 19.3 10.1 42 7.7 E 24 35 13 19 1014.4 1012.4 0.0
22/02:30pm 24.1 19.5 9.7 40 8.0 ESE 24 33 13 18 1014.6 1012.6 0.0
22/02:00pm 24.6 20.2 10.5 41 8.0 ESE 24 35 13 19 1014.8 1012.8 0.0
22/01:30pm 23.7 20.1 10.7 44 7.4 E 20 32 11 17 1015.3 1013.2 0.0
22/01:00pm 24.1 19.1 9.7 40 8.0 E 26 39 14 21 1015.5 1013.5 0.0
22/12:30pm 24.1 20.0 11.4 45 7.3 ESE 24 35 13 19 1015.8 1013.8 0.0
22/12:00pm 22.9 19.0 10.7 46 6.9 E 22 37 12 20 1016.2 1014.2 0.0
22/11:30am 23.3 18.8 11.4 47 6.8 E 26 33 14 18 1016.7 1014.7 0.0
22/11:00am 22.5 19.1 11.3 49 6.4 E 20 37 11 20 1017.1 1015.1 0.0
22/10:30am 21.2 17.3 12.1 56 5.2 ESE 24 37 13 20 1017.2 1015.2 0.0
22/10:00am 21.1 16.7 11.7 55 5.3 E 26 35 14 19 1017.8 1015.8 0.0
22/09:30am 21.0 16.4 12.4 58 4.9 E 28 37 15 20 1017.9 1015.9 0.0
22/09:00am 20.6 16.5 12.6 60 4.6 ESE 26 39 14 21 1017.9 1015.9 0.0
22/08:30am 20.0 15.1 12.7 63 4.2 ESE 30 41 16 22 1018.0 1016.0 0.0
22/08:00am 18.6 13.9 12.1 66 3.7 ESE 28 39 15 21 1018.0 1016.0 0.0
22/07:30am 19.1 15.3 12.4 65 3.8 ESE 24 39 13 21 1017.9 1015.9 0.0
22/07:00am 18.0 15.0 12.0 68 3.4 SE 19 30 10 16 1017.8 1015.8 0.0
22/06:30am 15.6 14.2 11.0 74 2.5 S 9 17 5 9 1017.3 1015.3 0.0
22/06:00am 13.9 12.8 9.9 77 2.1 SSW 6 7 3 4 1017.1 1015.1 0.0
22/05:30am 12.3 10.9 9.5 83 1.5 S 7 9 4 5 1016.8 1014.8 0.0
22/05:00am 11.2 10.4 9.5 89 0.9 S 4 7 2 4 1016.8 1014.8 0.0
22/04:30am 10.3 7.9 8.6 89 0.9 SSW 11 17 6 9 1016.4 1014.4 0.0
22/04:00am 10.9 8.9 8.5 85 1.2 S 9 11 5 6 1016.3 1014.3 0.0
22/03:30am 12.0 10.5 9.0 82 1.5 SSE 7 7 4 4 1016.4 1014.4 0.0
22/03:00am 12.2 10.3 9.0 81 1.6 SSE 9 11 5 6 1016.5 1014.5 0.0
22/02:30am 12.7 10.8 9.2 79 1.8 S 9 11 5 6 1016.4 1014.4 0.0
22/02:00am 12.0 10.0 8.8 81 1.6 S 9 13 5 7 1016.5 1014.5 0.0
22/01:30am 12.7 11.2 8.4 75 2.2 S 6 9 3 5 1016.7 1014.7 0.0
22/01:00am 12.6 11.0 8.9 78 1.9 SSW 7 9 4 5 1017.0 1015.0 0.0
22/12:30am 14.0 12.6 9.4 74 2.4 ESE 7 11 4 6 1017.4 1015.5 0.0
22/12:00am 14.9 12.3 9.3 69 2.9 ESE 13 20 7 11 1017.6 1015.6 0.0
 
Date/Time
EST
Temp
°C
App
Temp
°C
Dew
Point
°C
Rel
Hum
%
Delta-T
°C
Wind Press
QNH
hPa
Press
MSL
hPa
Rain since
9am
mm
Dir  Spd
km/h
Gust
km/h
Spd
kts
Gust
kts
21/11:30pm 15.4 11.8 8.4 63 3.6 ESE 17 20 9 11 1017.8 1015.8 0.0
21/11:00pm 16.0 11.7 8.0 59 4.1 ESE 20 30 11 16 1017.9 1015.9 0.0
21/10:30pm 16.7 11.7 7.9 56 4.5 ESE 24 39 13 21 1018.2 1016.2 0.0
21/10:00pm 17.2 11.4 7.8 54 4.9 ESE 28 39 15 21 1018.4 1016.4 0.0
21/09:30pm 17.2 12.8 9.1 59 4.3 ESE 22 28 12 15 1018.7 1016.7 0.0
21/09:00pm 17.4 13.8 11.7 69 3.2 ESE 22 32 12 17 1018.6 1016.6 0.0
21/08:30pm 17.7 14.2 13.4 76 2.5 ESE 24 35 13 19 1018.8 1016.8 0.0
21/08:00pm 17.8 14.7 13.5 76 2.5 ESE 22 30 12 16 1018.5 1016.5 0.0
21/07:30pm 18.1 14.6 13.4 74 2.7 ESE 24 32 13 17 1018.5 1016.5 0.0
21/07:00pm 18.3 15.6 13.4 73 2.8 ESE 20 32 11 17 1018.2 1016.2 0.0
21/06:30pm 18.6 15.9 12.8 69 3.3 E 19 24 10 13 1018.3 1016.3 0.0
21/06:00pm 19.1 16.0 13.5 70 3.2 E 22 30 12 16 1018.1 1016.1 0.0
21/05:30pm 19.8 15.0 12.8 64 4.0 ESE 30 44 16 24 1017.8 1015.8 0.0
21/05:00pm 20.3 13.5 12.0 59 4.7 ESE 39 52 21 28 1017.1 1015.1 0.0
21/04:30pm 21.1 14.4 12.3 57 5.1 ESE 39 50 21 27 1016.9 1014.9 0.0
21/04:06pm 21.3 14.3 12.4 57 5.1 ESE 41 59 22 32 1016.5 1014.5 0.0
21/04:00pm 21.2 13.1 12.1 56 5.2 ESE 46 59 25 32 1016.6 1014.6 0.0
21/03:37pm 22.0 13.3 11.4 51 6.0 E 48 67 26 36 1016.4 1014.4 0.0
21/03:30pm 22.2 13.3 11.9 52 5.9 ESE 50 65 27 35 1016.1 1014.1 0.0
21/03:14pm 22.8 13.8 12.7 53 5.9 E 52 70 28 38 1016.2 1014.2 0.0
21/03:07pm 23.5 16.8 13.4 53 6.0 ESE 41 70 22 38 1016.1 1014.1 0.0
21/03:05pm 24.8 18.6 12.7 47 7.1 ESE 37 61 20 33 1016.0 1014.0 0.0
21/03:00pm 24.8 18.5 11.0 42 7.9 ESE 35 46 19 25 1016.4 1014.4 0.0
21/02:31pm 24.9 19.0 9.2 37 8.7 ESE 30 48 16 26 1016.2 1014.2 0.0
21/02:30pm 24.9 19.4 9.2 37 8.7 ESE 28 44 15 24 1016.2 1014.2 0.0
21/02:00pm 25.2 20.4 11.7 43 7.8 ESE 28 41 15 22 1016.8 1014.8 0.0
21/01:30pm 24.8 19.6 10.3 40 8.2 ESE 28 41 15 22 1017.2 1015.2 0.0
21/01:00pm 24.5 19.9 11.1 43 7.7 ESE 26 37 14 20 1018.0 1016.0 0.0
21/12:30pm 23.8 19.2 11.2 45 7.2 ESE 26 39 14 21 1018.4 1016.4 0.0
21/12:08pm 24.7 19.7 10.9 42 7.9 ESE 28 46 15 25 1018.5 1016.5 0.0
21/12:00pm 24.0 19.8 11.0 44 7.4 ESE 24 39 13 21 1018.6 1016.6 0.0
21/11:30am 24.4 19.3 10.7 42 7.8 ESE 28 48 15 26 1018.8 1016.8 0.0
21/11:29am 24.4 19.3 10.7 42 7.8 ESE 28 48 15 26 1018.8 1016.8 0.0
21/11:00am 23.0 16.8 9.4 42 7.5 E 32 44 17 24 1019.0 1017.0 0.0
21/10:30am 23.2 18.8 10.3 44 7.2 ESE 24 43 13 23 1019.4 1017.5 0.0
21/10:00am 22.5 17.8 10.6 47 6.7 ESE 26 43 14 23 1019.5 1017.6 0.0
21/09:30am 22.2 16.6 10.0 46 6.8 SE 30 43 16 23 1019.7 1017.8 0.0
21/09:00am 21.5 16.1 10.9 51 5.9 ESE 30 39 16 21 1019.7 1017.8 0.0
21/08:30am 20.9 15.2 11.3 54 5.4 SE 32 43 17 23 1019.7 1017.8 0.0
21/08:00am 19.7 15.0 12.0 61 4.4 ESE 28 41 15 22 1019.8 1017.9 0.0
21/07:30am 19.2 15.9 11.7 62 4.2 ESE 20 33 11 18 1020.0 1018.0 0.0
21/07:00am 17.7 14.8 12.2 70 3.1 E 19 22 10 12 1020.0 1018.0 0.0
21/06:30am 17.1 14.4 11.6 70 3.1 ESE 17 22 9 12 1019.6 1017.7 0.0
21/06:00am 16.7 14.0 11.8 73 2.7 SE 17 24 9 13 1019.3 1017.3 0.0
21/05:30am 15.9 13.3 11.9 77 2.2 ESE 17 22 9 12 1019.0 1017.0 0.0
21/05:00am 15.2 13.2 11.6 79 2.0 ESE 13 19 7 10 1018.8 1016.8 0.0
21/04:30am 15.3 13.4 11.7 79 2.0 ESE 13 17 7 9 1018.5 1016.5 0.0
21/04:00am 15.7 13.0 11.7 77 2.2 ESE 17 26 9 14 1018.3 1016.3 0.0
21/03:30am 15.3 12.6 11.7 79 2.0 ESE 17 24 9 13 1018.2 1016.2 0.0
21/03:00am 15.4 12.3 11.6 78 2.1 ESE 19 26 10 14 1018.2 1016.2 0.0
21/02:30am 13.5 11.4 11.0 85 1.3 SE 13 17 7 9 1018.3 1016.3 0.0
21/02:00am 13.8 11.4 11.3 85 1.4 SSE 15 19 8 10 1018.3 1016.3 0.0
21/01:30am 14.0 11.6 11.3 84 1.5 SE 15 19 8 10 1018.6 1016.6 0.0
21/01:00am 14.6 11.4 11.4 81 1.7 SE 19 22 10 12 1018.7 1016.7 0.0
21/12:30am 14.5 11.4 11.7 83 1.5 SE 19 22 10 12 1018.9 1016.9 0.0
21/12:00am 16.1 12.6 12.1 77 2.2 ESE 22 32 12 17 1019.2 1017.2 0.0
 
Date/Time
EST
Temp
°C
App
Temp
°C
Dew
Point
°C
Rel
Hum
%
Delta-T
°C
Wind Press
QNH
hPa
Press
MSL
hPa
Rain since
9am
mm
Dir  Spd
km/h
Gust
km/h
Spd
kts
Gust
kts
20/11:30pm 16.5 13.4 12.3 76 2.4 ESE 20 30 11 16 1019.7 1017.8 0.0
20/11:00pm 16.4 13.2 12.0 75 2.4 ESE 20 26 11 14 1020.1 1018.1 0.0
20/10:30pm 16.5 13.4 12.3 76 2.4 ESE 20 26 11 14 1020.3 1018.3 0.0
20/10:00pm 17.0 13.6 12.5 75 2.5 ESE 22 30 12 16 1020.5 1018.5 0.0
20/09:30pm 17.0 14.7 13.1 78 2.2 ESE 17 22 9 12 1020.6 1018.6 0.0
20/09:00pm 17.1 14.5 13.2 78 2.2 ESE 19 26 10 14 1020.6 1018.6 0.0
20/08:30pm 17.3 15.3 13.8 80 2.0 E 17 22 9 12 1020.5 1018.5 0.0
20/08:00pm 17.8 15.4 12.7 72 2.9 SE 17 24 9 13 1020.2 1018.2 0.0
20/07:30pm 18.1 15.2 12.3 69 3.3 SE 19 24 10 13 1019.7 1017.8 0.0
20/07:00pm 18.4 15.4 12.6 69 3.3 ESE 20 32 11 17 1019.5 1017.6 0.0
20/06:30pm 18.8 14.7 12.8 68 3.4 E 26 35 14 19 1019.0 1017.0 0.0
20/06:00pm 19.3 14.5 13.0 67 3.6 ESE 30 44 16 24 1018.9 1016.9 0.0
20/05:30pm 19.5 13.2 13.4 68 3.5 E 39 54 21 29 1018.5 1016.5 0.0
20/05:13pm 19.9 13.3 13.6 67 3.7 E 41 59 22 32 1018.1 1016.1 0.0

Other Formats:

Comma delimited format used in spreadsheet applications
http://www.bom.gov.au/fwo/IDQ60801/IDQ60801.99435.axf

JavaScript Object Notation format (JSON) in row-major order
http://www.bom.gov.au/fwo/IDQ60801/IDQ60801.99435.json